createdAt,value
2023-01-13T00:05:04.332Z,6.82
2023-01-13T00:10:26.429Z,6.85
2023-01-13T00:16:03.641Z,6.83
2023-01-13T00:21:25.655Z,6.81
2023-01-13T00:26:47.673Z,6.81
2023-01-13T00:32:09.500Z,6.79
2023-01-13T00:37:31.335Z,6.78
2023-01-13T00:43:11.721Z,6.77
2023-01-13T00:48:34.660Z,6.81
2023-01-13T00:53:58.004Z,6.86
2023-01-13T00:59:20.021Z,6.90
2023-01-13T01:04:42.063Z,6.99
2023-01-13T01:10:03.983Z,7.07
2023-01-13T01:15:26.012Z,7.13
2023-01-13T01:20:48.039Z,7.19
2023-01-13T01:26:15.985Z,7.21
2023-01-13T01:31:37.628Z,7.24
2023-01-13T01:36:59.648Z,7.21
2023-01-13T01:42:41.945Z,7.22
2023-01-13T01:48:04.680Z,7.23
2023-01-13T01:53:28.014Z,7.21
2023-01-13T01:58:51.382Z,7.21
2023-01-13T02:04:40.479Z,7.19
2023-01-13T02:10:06.026Z,7.14
2023-01-13T02:15:39.082Z,7.10
2023-01-13T02:21:17.151Z,7.08
2023-01-13T02:26:41.607Z,7.03
2023-01-13T02:32:14.373Z,6.96
2023-01-13T02:37:40.156Z,6.94
2023-01-13T02:43:25.529Z,6.94
2023-01-13T02:48:49.067Z,6.94
2023-01-13T02:54:22.046Z,6.94
2023-01-13T02:59:44.317Z,6.99
2023-01-13T03:05:06.997Z,7.01
2023-01-13T03:10:41.067Z,7.02
2023-01-13T03:16:13.548Z,7.03
2023-01-13T03:21:46.199Z,7.09
2023-01-13T03:27:15.940Z,7.11
2023-01-13T03:32:44.135Z,7.13
2023-01-13T03:38:24.007Z,7.14
2023-01-13T03:44:13.223Z,7.14
2023-01-13T03:49:37.962Z,7.12
2023-01-13T03:55:21.671Z,7.12
2023-01-13T04:00:48.418Z,7.14
2023-01-13T04:06:19.680Z,7.19
2023-01-13T04:11:44.681Z,7.18
2023-01-13T04:17:06.850Z,7.15
2023-01-13T04:22:30.583Z,7.18
2023-01-13T04:27:52.316Z,7.22
2023-01-13T04:33:15.252Z,7.26
2023-01-13T04:38:36.972Z,7.28
2023-01-13T04:43:59.106Z,7.31
2023-01-13T04:49:21.232Z,7.34
2023-01-13T04:54:42.777Z,7.38
2023-01-13T05:00:07.096Z,7.43
2023-01-13T05:05:29.833Z,7.42
2023-01-13T05:10:51.863Z,7.43
2023-01-13T05:16:32.369Z,7.44
2023-01-13T05:22:15.267Z,7.45
2023-01-13T05:27:37.608Z,7.47
2023-01-13T05:32:59.444Z,7.48
2023-01-13T05:38:22.100Z,7.48
2023-01-13T05:43:45.090Z,7.48
2023-01-13T05:49:06.971Z,7.51
2023-01-13T05:54:29.047Z,7.51
2023-01-13T05:59:50.775Z,7.54
2023-01-13T06:05:13.006Z,7.55
2023-01-13T06:10:35.869Z,7.57
2023-01-13T06:16:00.620Z,7.57
2023-01-13T06:21:23.215Z,7.56
2023-01-13T06:26:44.783Z,7.57
2023-01-13T06:32:14.596Z,7.58
2023-01-13T06:37:37.122Z,7.60
2023-01-13T06:43:17.644Z,7.59
2023-01-13T06:48:39.753Z,7.58
2023-01-13T06:54:01.777Z,7.60
2023-01-13T06:59:26.914Z,7.62
2023-01-13T07:04:48.944Z,7.60
2023-01-13T07:10:22.372Z,7.56
2023-01-13T07:15:59.953Z,7.55
2023-01-13T07:21:22.232Z,7.53
2023-01-13T07:26:44.438Z,7.51
2023-01-13T07:32:07.103Z,7.49
2023-01-13T07:37:28.926Z,7.50
2023-01-13T07:43:09.615Z,7.53
2023-01-13T07:48:33.255Z,7.61
2023-01-13T07:53:55.079Z,7.66
2023-01-13T07:59:19.249Z,7.72
2023-01-13T08:04:41.353Z,7.79
2023-01-13T08:10:04.279Z,7.84
2023-01-13T08:15:26.219Z,7.87
2023-01-13T08:20:50.398Z,7.89
2023-01-13T08:26:14.675Z,7.90
2023-01-13T08:31:36.414Z,7.95
2023-01-13T08:36:58.645Z,8.01
2023-01-13T08:42:20.671Z,8.08
2023-01-13T08:47:42.711Z,8.09
2023-01-13T08:53:04.732Z,8.13
2023-01-13T08:58:27.012Z,8.23
2023-01-13T09:03:49.195Z,8.40
2023-01-13T09:09:11.427Z,8.54
2023-01-13T09:14:36.367Z,8.58
2023-01-13T09:20:01.009Z,8.62
2023-01-13T09:25:22.830Z,8.61
2023-01-13T09:30:46.742Z,8.61
2023-01-13T09:36:11.820Z,8.68
2023-01-13T09:42:00.130Z,8.72
2023-01-13T09:47:26.481Z,8.88
2023-01-13T09:52:48.418Z,9.04
2023-01-13T09:58:16.887Z,9.19
2023-01-13T10:03:38.791Z,9.27
2023-01-13T10:09:01.111Z,9.30
2023-01-13T10:14:41.811Z,9.32
2023-01-13T10:20:18.009Z,9.37
2023-01-13T10:25:54.546Z,9.45
2023-01-13T10:31:21.126Z,9.51
2023-01-13T10:37:08.661Z,9.54
2023-01-13T10:42:30.670Z,9.59
2023-01-13T10:48:07.942Z,9.62
2023-01-13T10:53:31.211Z,9.67
2023-01-13T10:58:54.032Z,9.66
2023-01-13T11:04:28.287Z,9.66
2023-01-13T11:10:21.110Z,9.68
2023-01-13T11:16:08.472Z,9.64
2023-01-13T11:21:44.124Z,9.74
2023-01-13T11:27:41.271Z,9.83
2023-01-13T11:33:15.457Z,9.87
2023-01-13T19:00:13.019Z,7.74
2023-01-13T19:05:36.090Z,7.70
2023-01-13T19:11:04.357Z,7.61
2023-01-13T19:16:26.283Z,7.50
2023-01-13T19:21:48.215Z,7.42
2023-01-13T19:27:11.035Z,7.36
2023-01-13T19:32:33.416Z,7.26
2023-01-13T19:37:56.041Z,7.16
2023-01-13T19:43:36.710Z,7.09
2023-01-13T19:48:58.824Z,7.07
2023-01-13T19:54:23.763Z,7.01
2023-01-13T19:59:45.901Z,6.95
2023-01-13T20:05:08.991Z,6.96
2023-01-13T20:10:31.144Z,6.97
2023-01-13T20:15:53.211Z,6.96
2023-01-13T20:21:15.116Z,6.95
2023-01-13T20:26:39.970Z,6.92
2023-01-13T20:32:01.986Z,6.88
2023-01-13T20:37:23.616Z,6.87
2023-01-13T20:42:46.649Z,6.80
2023-01-13T20:48:08.891Z,6.74
2023-01-13T20:53:30.507Z,6.71
2023-01-13T20:58:54.000Z,6.71
2023-01-13T21:04:15.871Z,6.69
2023-01-13T21:09:38.304Z,6.61
2023-01-13T21:15:17.620Z,6.66
2023-01-13T21:20:41.512Z,6.69
2023-01-13T21:26:06.194Z,6.66
2023-01-13T21:31:28.235Z,6.66
2023-01-13T21:36:50.327Z,6.67
2023-01-13T21:42:33.340Z,6.66
2023-01-13T21:47:58.673Z,6.66
2023-01-13T21:53:20.410Z,6.63
2023-01-13T21:58:42.068Z,6.66
2023-01-13T22:04:12.996Z,6.69
2023-01-13T22:09:34.971Z,6.68
2023-01-13T22:14:57.351Z,6.67
2023-01-13T22:20:19.440Z,6.74
2023-01-13T22:25:41.863Z,6.75
2023-01-13T22:31:08.458Z,6.74
2023-01-13T22:36:30.697Z,6.76
2023-01-13T22:41:52.517Z,6.75
2023-01-13T22:47:14.945Z,6.72
2023-01-13T22:52:36.981Z,6.69
2023-01-13T22:58:00.526Z,6.69
2023-01-13T23:03:23.876Z,6.69
2023-01-13T23:08:46.938Z,6.67
2023-01-13T23:14:12.106Z,6.66
2023-01-13T23:19:33.850Z,6.66
2023-01-13T23:24:55.686Z,6.61
2023-01-13T23:30:17.953Z,6.54
2023-01-13T23:35:39.961Z,6.47
2023-01-13T23:41:06.077Z,6.41
2023-01-13T23:46:32.747Z,6.41
2023-01-13T23:51:55.059Z,6.38
2023-01-13T23:57:16.935Z,6.39
